createdAt,value
2023-06-02T05:01:43.713Z,10.47
2023-06-02T05:04:10.922Z,10.55
2023-06-02T05:06:38.078Z,10.57
2023-06-02T05:09:05.521Z,10.61
2023-06-02T05:11:33.858Z,10.64
2023-06-02T05:14:03.498Z,10.72
2023-06-02T05:16:32.034Z,10.81
2023-06-02T05:19:00.588Z,10.88
2023-06-02T05:21:30.216Z,10.95
2023-06-02T05:24:00.096Z,11.07
2023-06-02T05:26:27.841Z,11.11
2023-06-02T05:28:56.414Z,11.15
2023-06-02T05:31:23.604Z,11.13
2023-06-02T05:33:51.715Z,11.20
2023-06-02T05:36:18.361Z,11.28
2023-06-02T05:38:46.160Z,11.33
2023-06-02T05:41:14.113Z,11.40
2023-06-02T05:43:41.599Z,11.45
2023-06-02T05:46:08.582Z,11.51
2023-06-02T05:48:36.000Z,11.57
2023-06-02T05:51:02.868Z,11.53
2023-06-02T05:53:30.651Z,11.56
2023-06-02T05:55:58.457Z,11.65
2023-06-02T05:58:26.730Z,11.68
2023-06-02T06:00:53.622Z,11.76
2023-06-02T06:03:22.060Z,11.76
2023-06-02T06:05:48.970Z,11.75
2023-06-02T06:08:16.492Z,11.77
2023-06-02T06:10:43.802Z,11.82
2023-06-02T06:13:15.469Z,11.83
2023-06-02T06:15:42.232Z,11.83
2023-06-02T06:18:09.563Z,11.86
2023-06-02T06:20:36.363Z,11.90
2023-06-02T06:23:03.898Z,11.96
2023-06-02T06:25:33.006Z,12.03
2023-06-02T06:28:00.388Z,12.07
2023-06-02T06:30:29.398Z,12.16
2023-06-02T06:33:01.376Z,12.22
2023-06-02T06:35:30.956Z,12.30
2023-06-02T06:38:02.892Z,12.36
2023-06-02T06:40:31.057Z,12.41
2023-06-02T06:43:02.939Z,12.46
2023-06-02T06:45:41.633Z,12.52
2023-06-02T06:48:09.467Z,12.56
2023-06-02T06:50:36.288Z,12.64
2023-06-02T06:53:04.774Z,12.75
2023-06-02T06:55:31.995Z,12.81
2023-06-02T06:57:58.713Z,12.89
2023-06-02T07:00:25.976Z,12.98
2023-06-02T07:02:53.072Z,13.06
2023-06-02T07:05:21.194Z,13.04
2023-06-02T07:07:48.215Z,13.10
2023-06-02T07:10:15.810Z,13.20
2023-06-02T07:12:42.466Z,13.32
2023-06-02T07:15:09.990Z,13.31
2023-06-02T07:17:36.769Z,13.39
2023-06-02T07:20:04.262Z,13.45
2023-06-02T07:22:30.988Z,13.41
2023-06-02T07:24:58.840Z,13.42
2023-06-02T07:27:25.497Z,13.43
2023-06-02T07:29:52.656Z,13.41
2023-06-02T07:32:20.033Z,13.38
2023-06-02T07:34:46.833Z,13.49
2023-06-02T07:37:13.398Z,13.65
2023-06-02T07:39:40.524Z,13.72
2023-06-02T07:42:07.628Z,13.80
2023-06-02T07:44:34.935Z,13.93
2023-06-02T07:47:03.086Z,14.02
2023-06-02T07:49:32.017Z,14.06
2023-06-02T07:51:58.629Z,14.10
2023-06-02T07:54:25.978Z,14.14
2023-06-02T07:56:52.677Z,14.19
2023-06-02T07:59:20.141Z,14.33
2023-06-02T08:01:47.328Z,14.35
2023-06-02T08:04:14.478Z,14.35
2023-06-02T08:06:42.706Z,14.43
2023-06-02T08:09:11.027Z,14.52
2023-06-02T08:11:37.736Z,14.61
2023-06-02T08:14:04.974Z,14.68
2023-06-02T08:16:38.582Z,14.72
2023-06-02T08:19:09.588Z,14.78
2023-06-02T08:21:37.879Z,14.83
2023-06-02T08:24:05.489Z,14.89
2023-06-02T08:26:32.193Z,14.98
2023-06-02T08:28:59.955Z,15.05
2023-06-02T08:31:27.482Z,15.15
2023-06-02T08:33:54.849Z,15.36
2023-06-02T08:36:21.745Z,15.38
2023-06-02T08:38:53.205Z,15.30
2023-06-02T08:41:20.935Z,15.33
2023-06-02T08:43:48.571Z,15.31
2023-06-02T08:46:16.847Z,15.19
2023-06-02T08:48:46.849Z,15.25
2023-06-02T08:51:17.137Z,15.44
2023-06-02T08:53:44.945Z,15.43
2023-06-02T08:56:11.560Z,15.48
2023-06-02T08:58:38.897Z,15.49
2023-06-02T09:01:05.565Z,15.54
2023-06-02T09:03:45.474Z,15.64
2023-06-02T09:06:24.986Z,15.70
2023-06-02T09:09:00.208Z,15.64
2023-06-02T09:11:31.686Z,15.64
2023-06-02T09:13:59.705Z,15.51
2023-06-02T09:16:42.034Z,15.36
2023-06-02T09:19:09.521Z,15.40
2023-06-02T09:21:38.934Z,15.48
2023-06-02T09:26:36.662Z,15.52
2023-06-02T09:29:15.264Z,15.55
2023-06-02T09:31:56.736Z,15.59
2023-06-02T09:34:24.504Z,15.69
2023-06-02T09:36:53.904Z,15.78
2023-06-02T09:39:39.683Z,15.93
2023-06-02T09:42:07.961Z,15.86
2023-06-02T09:44:34.953Z,15.95
2023-06-02T09:47:03.918Z,15.97
2023-06-02T09:49:43.325Z,16.00
2023-06-02T09:52:15.423Z,16.02
2023-06-02T09:54:49.773Z,16.04
2023-06-02T09:57:17.922Z,15.96
2023-06-02T09:59:46.120Z,16.04
2023-06-02T10:02:14.623Z,16.20
2023-06-02T10:04:41.359Z,16.28
2023-06-02T10:07:18.414Z,16.39
2023-06-02T10:10:16.202Z,16.41
2023-06-02T10:13:35.531Z,16.32
2023-06-02T10:16:36.284Z,16.16
2023-06-02T10:19:33.183Z,16.21
2023-06-02T10:22:17.432Z,16.21
2023-06-02T10:25:18.348Z,16.23
2023-06-02T10:27:48.999Z,16.21
2023-06-02T10:30:22.010Z,16.35
2023-06-02T10:32:50.151Z,16.65
2023-06-02T10:35:18.635Z,16.64
2023-06-02T10:38:33.384Z,16.67
2023-06-02T10:41:02.103Z,16.73
2023-06-02T10:43:28.925Z,16.59
2023-06-02T10:46:17.187Z,16.48
2023-06-02T10:48:43.918Z,16.56
2023-06-02T10:51:12.304Z,16.77
2023-06-02T10:54:03.186Z,17.01
2023-06-02T10:56:37.553Z,17.05
2023-06-02T10:59:04.524Z,17.07
2023-06-02T11:01:49.183Z,16.72
2023-06-02T11:04:28.938Z,16.65
2023-06-02T11:07:28.040Z,16.79
2023-06-02T11:09:54.696Z,16.98
2023-06-02T11:12:22.373Z,17.06
2023-06-02T11:15:02.776Z,17.24
2023-06-02T11:17:31.821Z,17.29
2023-06-02T11:19:59.014Z,17.41
2023-06-02T11:22:28.703Z,17.50
2023-06-02T11:24:56.778Z,17.69
2023-06-02T11:27:43.940Z,18.14
2023-06-02T11:30:14.651Z,18.36
2023-06-02T11:32:42.535Z,18.62
2023-06-02T11:35:12.100Z,18.77
2023-06-02T11:37:41.798Z,19.01
2023-06-02T11:40:12.258Z,19.19
2023-06-02T11:42:44.709Z,19.14
2023-06-02T11:45:23.855Z,19.09
2023-06-02T11:48:06.788Z,19.04
2023-06-02T11:50:34.981Z,19.20
2023-06-02T11:53:01.667Z,19.39
2023-06-02T11:55:31.703Z,19.43
2023-06-02T11:58:28.705Z,19.41
2023-06-02T12:01:09.636Z,19.49
2023-06-02T12:03:38.287Z,19.67
2023-06-02T12:06:15.840Z,19.94
2023-06-02T12:08:43.883Z,20.00
2023-06-02T12:11:22.282Z,20.07
2023-06-02T12:14:01.985Z,19.83
2023-06-02T12:16:28.790Z,19.88
2023-06-02T12:19:12.624Z,19.93
2023-06-02T12:21:41.041Z,19.95
2023-06-02T12:24:09.082Z,20.05
2023-06-02T12:26:43.500Z,19.98
2023-06-02T12:29:11.750Z,20.08
2023-06-02T12:31:39.470Z,20.32
2023-06-02T12:34:08.166Z,20.45
2023-06-02T12:36:39.520Z,20.41
2023-06-02T12:39:06.198Z,20.46
2023-06-02T12:41:33.820Z,20.45
2023-06-02T12:44:00.818Z,20.26
2023-06-02T12:46:28.192Z,20.45
2023-06-02T12:48:55.899Z,20.40
2023-06-02T12:51:22.935Z,20.23
2023-06-02T12:53:49.608Z,20.44
2023-06-02T12:56:16.670Z,20.69
2023-06-02T12:58:45.606Z,20.69
2023-06-02T13:01:12.154Z,20.52
2023-06-02T13:03:39.860Z,20.58
2023-06-02T13:06:10.010Z,20.81
2023-06-02T13:08:38.554Z,20.96
2023-06-02T13:11:06.444Z,20.88
2023-06-02T13:13:33.689Z,20.92
2023-06-02T13:16:00.794Z,20.84
2023-06-02T13:18:27.666Z,20.74
2023-06-02T13:20:58.228Z,20.72
2023-06-02T13:23:25.010Z,20.75
2023-06-02T13:25:52.281Z,20.85
2023-06-02T13:28:19.986Z,21.01
2023-06-02T13:30:46.773Z,21.27
2023-06-02T13:33:13.874Z,21.47
2023-06-02T13:35:41.423Z,21.45
2023-06-02T13:38:08.511Z,21.66
2023-06-02T13:40:35.737Z,21.73
2023-06-02T13:43:02.329Z,21.40
2023-06-02T13:45:29.827Z,21.15
2023-06-02T13:47:56.739Z,20.70
2023-06-02T13:50:23.873Z,20.64
2023-06-02T13:52:51.399Z,20.58
2023-06-02T13:55:18.586Z,20.48
2023-06-02T13:57:46.107Z,20.60
2023-06-02T14:00:13.190Z,20.77
2023-06-02T14:02:40.276Z,20.97
2023-06-02T14:05:08.791Z,20.95
2023-06-02T14:07:35.354Z,21.02
2023-06-02T14:10:02.993Z,21.05
2023-06-02T14:12:29.604Z,21.06
2023-06-02T14:14:56.674Z,21.23
2023-06-02T14:17:24.441Z,21.20
2023-06-02T14:19:51.062Z,20.92
2023-06-02T14:22:18.620Z,20.90
2023-06-02T14:24:45.383Z,20.83
2023-06-02T14:27:12.654Z,21.06
2023-06-02T14:29:41.404Z,21.21
2023-06-02T14:32:08.590Z,21.37
2023-06-02T14:34:35.362Z,21.57
2023-06-02T14:37:02.893Z,21.76
2023-06-02T14:39:29.557Z,21.60
2023-06-02T14:41:57.946Z,21.59
2023-06-02T14:44:24.941Z,21.62
2023-06-02T14:46:52.131Z,21.42
2023-06-02T14:49:19.943Z,21.67
2023-06-02T14:51:48.504Z,21.79
2023-06-02T14:54:16.454Z,21.86
2023-06-02T14:56:43.050Z,22.00
2023-06-02T14:59:11.986Z,22.11
2023-06-02T15:01:39.694Z,22.15
2023-06-02T15:04:06.881Z,22.01
2023-06-02T15:06:35.075Z,22.05
2023-06-02T15:09:01.654Z,21.79
2023-06-02T15:11:28.560Z,21.82
2023-06-02T15:13:56.314Z,21.55
2023-06-02T15:16:23.225Z,21.33
2023-06-02T15:18:54.749Z,21.01
2023-06-02T15:21:23.821Z,20.84
2023-06-02T15:23:50.894Z,20.65
2023-06-02T15:26:18.517Z,20.69
2023-06-02T15:28:46.428Z,20.73
2023-06-02T15:31:13.777Z,20.64
2023-06-02T15:33:43.044Z,20.53
2023-06-02T15:36:09.649Z,20.42
2023-06-02T15:38:37.318Z,20.32
2023-06-02T15:41:04.453Z,20.14
2023-06-02T15:43:31.188Z,20.04
2023-06-02T15:45:59.024Z,19.88
2023-06-02T15:48:26.267Z,19.82
2023-06-02T15:50:52.850Z,19.78
2023-06-02T15:53:19.946Z,19.69
2023-06-02T15:55:46.578Z,19.54
2023-06-02T15:58:13.581Z,19.46
2023-06-02T16:00:41.106Z,19.54
2023-06-02T16:03:07.747Z,19.61
2023-06-02T16:06:25.190Z,19.49
2023-06-02T16:08:52.161Z,19.36
2023-06-02T16:11:19.188Z,19.33
2023-06-02T16:13:46.266Z,19.27
2023-06-02T16:16:12.824Z,19.26
2023-06-02T16:18:39.984Z,19.38
2023-06-02T16:21:06.991Z,19.50
2023-06-02T16:23:34.884Z,19.50
2023-06-02T16:26:02.649Z,19.42
2023-06-02T16:28:30.648Z,19.30
2023-06-02T16:30:57.628Z,19.17
2023-06-02T16:33:25.167Z,19.19
2023-06-02T16:35:51.723Z,19.16
2023-06-02T16:38:19.239Z,19.14
2023-06-02T16:40:45.918Z,19.12
2023-06-02T16:43:14.642Z,19.09
2023-06-02T16:45:42.296Z,19.08
2023-06-02T16:48:08.928Z,19.03
2023-06-02T16:50:36.653Z,18.94
2023-06-02T16:53:04.130Z,18.87
2023-06-02T16:55:31.318Z,18.79
2023-06-02T16:58:00.743Z,18.82
2023-06-02T17:00:28.343Z,18.85
2023-06-02T17:02:56.366Z,18.83
2023-06-02T17:05:24.756Z,18.80
2023-06-02T17:07:54.322Z,18.75
2023-06-02T17:10:21.615Z,18.70
2023-06-02T17:12:49.339Z,18.66
2023-06-02T17:15:16.605Z,18.60
2023-06-02T17:17:43.750Z,18.58
2023-06-02T17:20:12.885Z,18.52
2023-06-02T17:22:39.920Z,18.48
2023-06-02T17:25:08.584Z,18.50
2023-06-02T17:27:37.358Z,18.49
2023-06-02T17:30:07.514Z,18.52
2023-06-02T17:32:34.718Z,18.53
2023-06-02T17:35:01.958Z,18.47
2023-06-02T17:37:31.823Z,18.38
2023-06-02T17:40:03.039Z,18.32
2023-06-02T17:42:32.470Z,18.24
2023-06-02T17:45:00.238Z,18.12
2023-06-02T17:47:27.950Z,18.01
2023-06-02T17:49:54.761Z,17.95
2023-06-02T17:52:24.311Z,17.92
2023-06-02T17:54:53.098Z,17.90
2023-06-02T17:57:19.946Z,17.82
2023-06-02T17:59:47.539Z,17.81
2023-06-02T18:02:14.156Z,17.74
2023-06-02T18:04:41.599Z,17.70
2023-06-02T18:07:09.766Z,17.62
2023-06-02T18:09:37.907Z,17.58
2023-06-02T18:12:05.705Z,17.51
2023-06-02T18:14:32.645Z,17.46
2023-06-02T18:18:11.361Z,17.40
2023-06-02T18:20:38.701Z,17.37
2023-06-02T18:23:05.278Z,17.35
2023-06-02T18:25:34.016Z,17.29
2023-06-02T18:28:00.619Z,17.29
2023-06-02T18:30:27.844Z,17.22
2023-06-02T18:32:54.589Z,17.16
2023-06-02T18:35:21.964Z,17.10
2023-06-02T18:37:48.593Z,17.06
2023-06-02T18:40:16.021Z,17.07
2023-06-02T18:42:42.638Z,17.02
2023-06-02T18:45:09.896Z,17.00
2023-06-02T18:47:36.536Z,16.99
2023-06-02T18:50:04.722Z,16.98
2023-06-02T18:52:35.449Z,16.95
2023-06-02T18:55:03.318Z,16.90
2023-06-02T18:57:29.941Z,16.91
2023-06-02T18:59:58.082Z,16.88
2023-06-02T19:02:25.408Z,16.84
2023-06-02T19:04:59.216Z,16.84
2023-06-02T19:07:29.914Z,16.82
2023-06-02T19:09:58.703Z,16.78
2023-06-02T19:12:25.506Z,16.78
2023-06-02T19:14:52.990Z,16.76
2023-06-02T19:17:19.717Z,16.72
2023-06-02T19:19:47.082Z,16.68
2023-06-02T19:22:15.710Z,16.65
2023-06-02T19:24:43.218Z,16.62
2023-06-02T19:27:10.365Z,16.63
2023-06-02T19:29:37.682Z,16.55
2023-06-02T19:32:06.561Z,16.50
2023-06-02T19:34:38.253Z,16.47
2023-06-02T19:37:05.076Z,16.41
2023-06-02T19:39:32.412Z,16.37
2023-06-02T19:41:59.199Z,16.30
2023-06-02T19:44:26.667Z,16.26
2023-06-02T19:46:53.317Z,16.22
2023-06-02T19:49:23.091Z,16.16
2023-06-02T19:51:49.823Z,16.11
2023-06-02T19:54:19.676Z,16.04
2023-06-02T19:56:46.373Z,15.97
2023-06-02T19:59:13.468Z,15.88
2023-06-02T20:01:40.508Z,15.82
2023-06-02T20:04:07.969Z,15.74
2023-06-02T20:06:34.678Z,15.66
2023-06-02T20:09:02.017Z,15.59
2023-06-02T20:11:28.610Z,15.50
2023-06-02T20:13:56.326Z,15.41
2023-06-02T20:16:37.352Z,15.32
2023-06-02T20:19:04.648Z,15.21
2023-06-02T20:21:31.332Z,15.11
2023-06-02T20:23:58.538Z,15.00
2023-06-02T20:26:25.728Z,14.92
2023-06-02T20:28:52.946Z,14.84
